createdAt,value
2023-05-06T00:02:22.590Z,17.50
2023-05-06T00:04:51.351Z,17.50
2023-05-06T00:07:19.939Z,17.40
2023-05-06T00:12:15.996Z,17.30
2023-05-06T00:14:44.351Z,15.90
2023-05-06T00:17:12.738Z,16.00
2023-05-06T00:19:41.718Z,17.60
2023-05-06T00:22:10.076Z,17.90
2023-05-06T00:27:06.168Z,16.60
2023-05-06T00:32:02.368Z,18.10
2023-05-06T00:34:30.804Z,16.50
2023-05-06T00:36:59.161Z,16.10
2023-05-06T00:39:27.469Z,17.30
2023-05-06T00:42:01.682Z,19.20
2023-05-06T00:44:31.742Z,15.10
2023-05-06T00:47:01.509Z,17.80
2023-05-06T00:49:30.574Z,16.80
2023-05-06T00:51:59.559Z,16.50
2023-05-06T00:54:29.199Z,17.60
2023-05-06T00:56:57.664Z,17.30
2023-05-06T00:59:26.138Z,16.60
2023-05-06T01:01:54.625Z,17.00
2023-05-06T01:07:01.185Z,14.60
2023-05-06T01:09:38.278Z,14.10
2023-05-06T01:12:09.543Z,14.30
2023-05-06T01:14:41.471Z,14.10
2023-05-06T01:17:11.607Z,12.40
2023-05-06T01:19:45.960Z,14.30
2023-05-06T01:22:16.343Z,14.00
2023-05-06T01:24:46.013Z,15.70
2023-05-06T01:27:16.115Z,14.00
2023-05-06T01:29:46.154Z,15.70
2023-05-06T01:32:33.838Z,12.20
2023-05-06T01:35:10.812Z,14.90
2023-05-06T01:37:45.074Z,13.00
2023-05-06T01:42:41.712Z,12.90
2023-05-06T01:45:10.757Z,12.70
2023-05-06T01:47:40.027Z,13.60
2023-05-06T01:50:09.745Z,13.50
2023-05-06T01:52:38.114Z,12.30
2023-05-06T01:55:08.818Z,12.30
2023-05-06T01:57:37.333Z,12.00
2023-05-06T02:00:09.072Z,11.30
2023-05-06T02:02:40.926Z,10.70
2023-05-06T02:05:10.232Z,12.90
2023-05-06T02:07:39.844Z,12.50
2023-05-06T02:12:38.632Z,13.30
2023-05-06T02:15:09.746Z,12.70
2023-05-06T02:17:39.087Z,12.00
2023-05-06T02:22:37.508Z,11.00
2023-05-06T02:25:08.778Z,12.60
2023-05-06T02:27:37.354Z,9.80
2023-05-06T02:30:08.000Z,12.90
2023-05-06T02:32:36.434Z,10.30
2023-05-06T02:35:07.191Z,12.40
2023-05-06T02:37:35.622Z,12.30
2023-05-06T02:40:05.856Z,12.60
2023-05-06T02:42:35.390Z,13.10
2023-05-06T02:45:05.128Z,12.00
2023-05-06T02:47:34.089Z,12.40
2023-05-06T02:52:30.161Z,12.70
2023-05-06T02:54:58.621Z,11.40
2023-05-06T02:57:27.063Z,12.10
2023-05-06T02:59:55.585Z,10.60
2023-05-06T03:04:52.062Z,8.50
2023-05-06T03:07:20.618Z,12.00
2023-05-06T03:09:49.447Z,12.10
2023-05-06T03:14:45.591Z,11.60
2023-05-06T03:17:14.060Z,9.20
2023-05-06T03:22:11.018Z,11.20
2023-05-06T03:24:42.357Z,11.60
2023-05-06T03:27:10.761Z,11.10
2023-05-06T03:29:39.941Z,13.00
2023-05-06T03:32:09.535Z,12.30
2023-05-06T03:34:42.424Z,12.40
2023-05-06T03:37:12.519Z,12.10
2023-05-06T03:39:41.827Z,11.90
2023-05-06T03:42:11.957Z,11.60
2023-05-06T03:44:40.860Z,11.40
2023-05-06T03:47:10.255Z,11.00
2023-05-06T03:49:40.254Z,11.50
2023-05-06T03:52:09.851Z,12.10
2023-05-06T03:54:39.029Z,11.50
2023-05-06T03:57:08.700Z,12.00
2023-05-06T03:59:37.691Z,12.10
2023-05-06T04:02:06.809Z,12.00
2023-05-06T04:04:37.420Z,10.90
2023-05-06T04:07:06.036Z,11.50
2023-05-06T04:09:34.488Z,11.90
2023-05-06T04:12:05.910Z,11.30
2023-05-06T04:14:34.590Z,11.80
2023-05-06T04:17:02.990Z,13.30
2023-05-06T04:19:32.911Z,13.00
2023-05-06T04:22:01.724Z,11.50
2023-05-06T04:24:30.603Z,10.30
2023-05-06T04:26:58.905Z,12.10
2023-05-06T04:29:27.728Z,12.00
2023-05-06T04:32:00.071Z,11.40
2023-05-06T04:34:28.653Z,10.10
2023-05-06T04:36:59.895Z,10.50
2023-05-06T04:39:38.705Z,10.40
2023-05-06T04:42:08.206Z,10.10
2023-05-06T04:44:42.884Z,9.10
2023-05-06T04:47:11.464Z,10.10
2023-05-06T04:49:40.311Z,10.60
2023-05-06T04:52:10.086Z,10.70
2023-05-06T04:54:39.001Z,9.70
2023-05-06T04:57:08.740Z,8.30
2023-05-06T04:59:37.511Z,8.10
2023-05-06T05:02:05.907Z,8.80
2023-05-06T05:07:02.326Z,7.80
2023-05-06T05:09:32.210Z,9.20
2023-05-06T05:12:01.728Z,8.40
2023-05-06T05:14:31.195Z,8.10
2023-05-06T05:17:00.328Z,9.30
2023-05-06T05:21:57.118Z,7.70
2023-05-06T05:24:26.570Z,8.80
2023-05-06T05:29:23.088Z,9.40
2023-05-06T05:31:52.117Z,7.60
2023-05-06T05:36:50.560Z,8.10
2023-05-06T05:39:20.403Z,7.60
2023-05-06T05:41:49.167Z,9.10
2023-05-06T05:46:45.112Z,8.20
2023-05-06T05:49:15.788Z,9.50
2023-05-06T05:51:44.598Z,9.40
2023-05-06T05:54:14.187Z,9.30
2023-05-06T05:56:42.709Z,8.60
2023-05-06T06:01:39.158Z,8.60
2023-05-06T06:04:08.087Z,8.80
2023-05-06T06:06:36.351Z,7.10
2023-05-06T06:11:32.536Z,8.00
2023-05-06T06:14:01.296Z,9.10
2023-05-06T06:16:29.974Z,7.50
2023-05-06T06:18:58.530Z,8.80
2023-05-06T06:23:56.273Z,8.40
2023-05-06T06:28:52.166Z,7.70
2023-05-06T06:33:48.046Z,9.50
2023-05-06T06:38:44.392Z,8.30
2023-05-06T06:41:14.012Z,7.30
2023-05-06T06:43:42.443Z,8.30
2023-05-06T06:46:20.668Z,8.20
2023-05-06T06:48:49.536Z,8.60
2023-05-06T06:51:17.926Z,8.60
2023-05-06T06:53:48.321Z,8.20
2023-05-06T06:56:17.332Z,9.00
2023-05-06T06:58:45.782Z,8.40
2023-05-06T07:01:14.246Z,8.50
2023-05-06T07:03:42.688Z,8.40
2023-05-06T07:06:11.214Z,7.60
2023-05-06T07:08:39.654Z,7.60
2023-05-06T07:11:07.981Z,6.90
2023-05-06T07:13:36.352Z,8.00
2023-05-06T07:16:05.623Z,9.00
2023-05-06T07:18:34.146Z,6.60
2023-05-06T07:21:02.541Z,7.10
2023-05-06T07:23:32.175Z,7.20
2023-05-06T07:26:00.643Z,7.30
2023-05-06T07:28:29.010Z,7.60
2023-05-06T07:30:57.389Z,7.80
2023-05-06T07:33:25.680Z,7.70
2023-05-06T07:38:22.500Z,5.90
2023-05-06T07:40:51.593Z,6.30
2023-05-06T07:43:21.336Z,6.90
2023-05-06T07:45:49.768Z,6.90
2023-05-06T07:48:19.974Z,7.60
2023-05-06T07:50:48.713Z,6.20
2023-05-06T07:53:17.117Z,6.60
2023-05-06T07:55:45.531Z,7.30
2023-05-06T07:58:13.904Z,6.50
2023-05-06T08:00:42.516Z,6.00
2023-05-06T08:03:11.415Z,6.60
2023-05-06T08:05:40.008Z,7.00
2023-05-06T08:08:08.310Z,7.20
2023-05-06T08:10:36.782Z,6.50
2023-05-06T08:13:05.216Z,6.60
2023-05-06T08:15:33.639Z,5.70
2023-05-06T08:18:13.674Z,7.30
2023-05-06T08:20:50.543Z,6.80
2023-05-06T08:23:18.952Z,8.00
2023-05-06T08:25:47.452Z,8.40
2023-05-06T08:28:16.034Z,12.10
2023-05-06T08:30:46.996Z,8.90
2023-05-06T08:33:15.278Z,6.20
2023-05-06T08:35:44.222Z,6.70
2023-05-06T08:38:12.589Z,6.20
2023-05-06T08:40:43.175Z,7.40
2023-05-06T08:43:14.038Z,6.50
2023-05-06T08:45:42.805Z,6.40
2023-05-06T08:48:11.177Z,7.20
2023-05-06T08:50:42.242Z,7.00
2023-05-06T08:53:11.982Z,5.70
2023-05-06T08:55:41.586Z,6.20
2023-05-06T08:58:11.713Z,15.60
2023-05-06T09:00:40.085Z,10.00
2023-05-06T09:03:08.483Z,25.60
2023-05-06T09:05:36.849Z,17.40
2023-05-06T09:08:05.866Z,15.20
2023-05-06T09:10:42.167Z,19.00
2023-05-06T09:13:13.315Z,6.20
2023-05-06T09:15:42.203Z,12.30
2023-05-06T09:18:11.593Z,9.40
2023-05-06T09:20:41.853Z,10.10
2023-05-06T09:23:10.409Z,9.20
2023-05-06T09:25:38.911Z,20.90
2023-05-06T09:28:08.549Z,6.80
2023-05-06T09:30:40.150Z,7.30
2023-05-06T09:33:08.879Z,19.70
2023-05-06T09:35:38.193Z,6.30
2023-05-06T09:38:07.374Z,10.90
2023-05-06T09:40:36.332Z,6.10
2023-05-06T09:43:05.104Z,6.30
2023-05-06T09:45:33.484Z,8.80
2023-05-06T09:48:03.489Z,13.50
2023-05-06T09:50:33.045Z,33.60
2023-05-06T09:53:03.023Z,8.10
2023-05-06T09:55:31.750Z,26.70
2023-05-06T09:58:01.045Z,13.80
2023-05-06T10:00:31.773Z,9.30
2023-05-06T10:03:01.274Z,10.70
2023-05-06T10:05:30.956Z,12.70
2023-05-06T10:08:00.159Z,18.20
2023-05-06T10:10:29.008Z,10.00
2023-05-06T10:12:57.659Z,11.40
2023-05-06T10:15:26.703Z,27.40
2023-05-06T10:17:55.986Z,12.10
2023-05-06T10:20:25.140Z,51.90
2023-05-06T10:23:01.284Z,32.60
2023-05-06T10:25:32.786Z,39.00
2023-05-06T10:28:01.450Z,33.70
2023-05-06T10:30:31.275Z,40.10
2023-05-06T10:33:04.467Z,43.20
2023-05-06T10:35:46.581Z,27.00
2023-05-06T10:38:18.248Z,23.20
2023-05-06T10:40:46.901Z,39.70
2023-05-06T10:43:23.948Z,22.20
2023-05-06T10:46:04.162Z,29.60
2023-05-06T10:48:33.086Z,9.40
2023-05-06T10:51:23.271Z,6.80
2023-05-06T10:53:59.535Z,6.40
2023-05-06T10:56:28.502Z,5.70
2023-05-06T10:58:57.083Z,6.30
2023-05-06T11:01:27.939Z,7.70
2023-05-06T11:03:56.617Z,6.30
2023-05-06T11:06:34.046Z,7.10
2023-05-06T11:09:03.636Z,7.90
2023-05-06T11:11:51.426Z,7.10
2023-05-06T11:14:27.330Z,8.10
2023-05-06T11:16:56.771Z,7.40
2023-05-06T11:19:26.853Z,7.00
2023-05-06T11:21:56.855Z,6.90
2023-05-06T11:24:26.863Z,6.40
2023-05-06T11:26:56.123Z,8.00
2023-05-06T11:29:24.921Z,6.90
2023-05-06T11:31:53.681Z,7.40
2023-05-06T11:34:24.290Z,6.60
2023-05-06T11:36:58.687Z,7.00
2023-05-06T11:39:29.695Z,6.20
2023-05-06T11:42:03.186Z,6.60
2023-05-06T11:44:33.634Z,7.80
2023-05-06T11:47:05.006Z,6.40
2023-05-06T11:49:37.780Z,6.50
2023-05-06T11:52:06.399Z,6.90
2023-05-06T11:54:36.146Z,6.50
2023-05-06T11:57:04.708Z,7.10
2023-05-06T11:59:34.711Z,6.90
2023-05-06T12:02:04.038Z,7.60
2023-05-06T12:04:40.524Z,8.70
2023-05-06T12:07:10.091Z,7.40
2023-05-06T12:09:39.251Z,10.20
2023-05-06T12:12:09.063Z,7.80
2023-05-06T12:14:37.563Z,8.50
2023-05-06T12:17:06.161Z,8.90
2023-05-06T12:19:34.632Z,7.80
2023-05-06T12:22:19.526Z,8.90
2023-05-06T12:24:49.312Z,7.60
2023-05-06T12:27:30.440Z,7.90
2023-05-06T12:29:59.854Z,9.00
2023-05-06T12:32:28.197Z,9.10
2023-05-06T12:34:57.709Z,10.40
2023-05-06T12:37:28.313Z,16.10
2023-05-06T12:39:59.164Z,12.20
2023-05-06T12:42:27.864Z,11.50
2023-05-06T12:44:56.293Z,9.60
2023-05-06T12:47:25.487Z,9.80
2023-05-06T12:49:55.193Z,13.70
2023-05-06T12:52:25.177Z,10.60
2023-05-06T12:54:53.506Z,10.40
2023-05-06T12:57:22.109Z,9.70
2023-05-06T12:59:50.713Z,10.40
2023-05-06T13:02:19.135Z,11.50
2023-05-06T13:04:47.603Z,11.10
2023-05-06T13:07:16.077Z,10.00
2023-05-06T13:09:44.521Z,12.50
2023-05-06T13:12:12.965Z,23.50
2023-05-06T13:17:08.964Z,15.30
2023-05-06T13:19:37.528Z,16.20
2023-05-06T13:22:06.102Z,17.10
2023-05-06T13:24:34.499Z,15.00
2023-05-06T13:27:02.895Z,15.30
2023-05-06T13:29:31.280Z,13.80
2023-05-06T13:32:00.407Z,17.60
2023-05-06T13:34:28.908Z,18.90
2023-05-06T13:36:57.718Z,22.60
2023-05-06T13:39:26.265Z,25.90
2023-05-06T13:41:55.050Z,22.80
2023-05-06T13:44:24.222Z,23.40
2023-05-06T13:46:52.785Z,18.90
2023-05-06T13:49:21.312Z,16.90
2023-05-06T13:51:49.896Z,19.50
2023-05-06T13:54:18.596Z,20.10
2023-05-06T13:56:46.891Z,22.90
2023-05-06T14:01:43.356Z,16.10
2023-05-06T14:04:11.983Z,18.80
2023-05-06T14:06:40.252Z,20.90
2023-05-06T14:09:08.720Z,19.20
2023-05-06T14:11:37.224Z,19.20
2023-05-06T14:14:06.293Z,17.70
2023-05-06T14:16:34.715Z,17.50
2023-05-06T14:19:04.085Z,17.60
2023-05-06T14:21:32.407Z,17.50
2023-05-06T14:26:28.892Z,20.80
2023-05-06T14:31:25.916Z,26.00
2023-05-06T14:33:54.320Z,23.40
2023-05-06T14:38:50.220Z,24.40
2023-05-06T14:43:46.036Z,22.60
2023-05-06T14:46:15.199Z,17.70
2023-05-06T14:48:44.678Z,22.40
2023-05-06T14:51:13.047Z,16.10
2023-05-06T14:56:10.012Z,19.40
2023-05-06T14:58:38.998Z,25.80
2023-05-06T15:01:07.504Z,22.20
2023-05-06T15:03:35.951Z,19.50
2023-05-06T15:06:05.225Z,19.50
2023-05-06T15:08:34.575Z,21.00
2023-05-06T15:11:04.091Z,28.40
2023-05-06T15:13:32.997Z,19.40
2023-05-06T15:16:01.358Z,27.10
2023-05-06T15:21:00.407Z,20.00
2023-05-06T15:23:28.846Z,20.80
2023-05-06T15:25:58.077Z,19.90
2023-05-06T15:28:26.650Z,27.00
2023-05-06T15:30:54.993Z,19.20
2023-05-06T15:35:50.851Z,23.30
2023-05-06T15:40:50.859Z,22.70
2023-05-06T15:43:23.755Z,25.70
2023-05-06T15:45:54.388Z,36.50
2023-05-06T15:48:23.085Z,29.90
2023-05-06T15:50:51.428Z,25.90
2023-05-06T15:55:56.207Z,27.70
2023-05-06T15:58:26.217Z,35.20
2023-05-06T16:00:54.511Z,39.80
2023-05-06T16:05:52.296Z,25.40
2023-05-06T16:08:20.594Z,31.90
2023-05-06T16:10:51.112Z,30.00
2023-05-06T16:13:19.840Z,44.50
2023-05-06T16:15:48.363Z,31.30
2023-05-06T16:18:18.101Z,42.40
2023-05-06T16:23:14.437Z,28.40
2023-05-06T16:25:42.793Z,47.30
2023-05-06T16:30:39.867Z,28.30
2023-05-06T16:33:08.268Z,31.90
2023-05-06T16:35:36.840Z,42.20
2023-05-06T16:38:05.272Z,44.90
2023-05-06T16:40:41.080Z,39.60
2023-05-06T16:43:09.743Z,39.60
2023-05-06T16:45:39.058Z,31.80
2023-05-06T16:48:07.715Z,49.00
2023-05-06T16:50:36.349Z,37.30
2023-05-06T16:53:04.873Z,56.90
2023-05-06T16:55:33.193Z,48.70
2023-05-06T17:00:30.956Z,35.00
2023-05-06T17:02:59.452Z,28.10
2023-05-06T17:05:30.308Z,55.60
2023-05-06T17:07:58.815Z,52.10
2023-05-06T17:10:28.806Z,55.80
2023-05-06T17:12:57.348Z,47.60
2023-05-06T17:15:25.991Z,62.00
2023-05-06T17:17:54.373Z,65.70
2023-05-06T17:22:50.840Z,32.10
2023-05-06T17:27:46.787Z,29.40
2023-05-06T17:32:42.868Z,30.50
2023-05-06T17:37:40.261Z,27.30
2023-05-06T17:40:10.048Z,23.90
2023-05-06T17:42:38.406Z,29.30
2023-05-06T17:47:35.309Z,22.20
2023-05-06T17:50:04.273Z,25.70
2023-05-06T17:52:32.565Z,35.90
2023-05-06T17:55:11.308Z,35.10
2023-05-06T17:57:44.356Z,62.50
2023-05-06T18:02:44.045Z,28.00
2023-05-06T18:05:13.017Z,32.30
2023-05-06T18:07:41.634Z,30.50
2023-05-06T18:10:11.424Z,33.00
2023-05-06T18:12:40.101Z,31.20
2023-05-06T18:15:10.718Z,37.30
2023-05-06T18:17:39.361Z,55.60
2023-05-06T18:22:36.534Z,32.40
2023-05-06T18:25:06.633Z,37.90
2023-05-06T18:27:35.501Z,31.30
2023-05-06T18:30:05.377Z,31.50
2023-05-06T18:32:34.671Z,50.20
2023-05-06T18:35:03.145Z,39.30
2023-05-06T18:39:59.400Z,37.60
2023-05-06T18:42:28.216Z,44.70
2023-05-06T18:44:57.373Z,34.20
2023-05-06T18:47:25.979Z,29.40
2023-05-06T18:49:56.986Z,39.70
2023-05-06T18:52:25.517Z,57.20
2023-05-06T18:54:53.848Z,59.50
2023-05-06T18:57:22.902Z,62.60
2023-05-06T18:59:51.280Z,56.40
2023-05-06T19:04:47.238Z,46.10
2023-05-06T19:07:16.302Z,34.50
2023-05-06T19:09:44.821Z,35.80
2023-05-06T19:12:14.436Z,39.60
2023-05-06T19:14:42.788Z,41.30
2023-05-06T19:17:11.478Z,25.10
2023-05-06T19:19:40.057Z,27.30
2023-05-06T19:24:35.841Z,17.90
2023-05-06T19:27:04.280Z,31.40
2023-05-06T19:29:32.759Z,20.10
2023-05-06T19:34:29.896Z,19.40
2023-05-06T19:36:58.298Z,35.70
2023-05-06T19:39:26.815Z,19.50
2023-05-06T19:44:23.471Z,51.70
2023-05-06T19:46:53.802Z,51.20
2023-05-06T19:49:22.141Z,51.80
2023-05-06T19:51:50.405Z,47.10
2023-05-06T19:54:19.197Z,73.10
2023-05-06T19:56:48.684Z,39.50
2023-05-06T19:59:17.567Z,65.00
2023-05-06T20:01:46.059Z,46.90
2023-05-06T20:04:14.408Z,40.60
2023-05-06T20:06:42.720Z,67.00
2023-05-06T20:09:11.234Z,48.20
2023-05-06T20:11:39.614Z,33.50
2023-05-06T20:16:35.455Z,15.50
2023-05-06T20:19:03.874Z,16.30
2023-05-06T20:21:32.249Z,26.20
2023-05-06T20:26:28.705Z,18.50
2023-05-06T20:28:57.601Z,19.90
2023-05-06T20:31:26.062Z,28.20
2023-05-06T20:33:55.084Z,20.30
2023-05-06T20:38:50.951Z,13.20
2023-05-06T20:41:19.228Z,21.60
2023-05-06T20:43:47.596Z,16.60
2023-05-06T20:46:17.823Z,18.10
2023-05-06T20:48:46.474Z,19.90
2023-05-06T20:51:15.428Z,21.70
2023-05-06T20:53:45.421Z,24.00
2023-05-06T20:56:18.148Z,20.80
2023-05-06T20:58:46.516Z,25.10
2023-05-06T21:03:43.679Z,16.10
2023-05-06T21:06:12.690Z,19.00
2023-05-06T21:08:42.655Z,18.80
2023-05-06T21:11:11.489Z,17.20
2023-05-06T21:16:07.808Z,17.30
2023-05-06T21:18:37.292Z,17.10
2023-05-06T21:21:05.667Z,19.10
2023-05-06T21:23:34.721Z,16.80
2023-05-06T21:26:03.186Z,16.90
2023-05-06T21:30:58.909Z,16.10
2023-05-06T21:33:27.237Z,16.30
2023-05-06T21:35:55.562Z,18.30
2023-05-06T21:38:23.919Z,13.00
2023-05-06T21:40:52.210Z,15.00
2023-05-06T21:43:20.550Z,14.60
2023-05-06T21:45:48.923Z,12.40
2023-05-06T21:48:17.252Z,15.70
2023-05-06T21:50:45.784Z,14.40
2023-05-06T21:53:14.146Z,13.50
2023-05-06T21:55:42.597Z,16.80
2023-05-06T22:00:39.034Z,15.90
2023-05-06T22:03:07.384Z,13.30
2023-05-06T22:08:03.579Z,14.60
2023-05-06T22:12:59.536Z,13.50
2023-05-06T22:17:55.378Z,12.10
2023-05-06T22:20:24.434Z,14.50
2023-05-06T22:25:20.665Z,14.00
2023-05-06T22:27:48.942Z,12.80
2023-05-06T22:30:17.415Z,13.90
2023-05-06T22:35:13.696Z,12.20
2023-05-06T22:37:42.059Z,11.70
2023-05-06T22:42:39.144Z,12.10
2023-05-06T22:47:36.969Z,11.90
2023-05-06T22:50:07.463Z,12.20
2023-05-06T22:52:36.092Z,12.10
2023-05-06T22:55:05.935Z,11.20
2023-05-06T22:57:35.154Z,11.50
2023-05-06T23:00:06.276Z,13.30
2023-05-06T23:02:34.981Z,12.00
2023-05-06T23:05:03.905Z,11.00
2023-05-06T23:07:32.325Z,11.20
2023-05-06T23:10:02.095Z,14.80
2023-05-06T23:12:33.396Z,12.30
2023-05-06T23:15:03.287Z,11.90
2023-05-06T23:17:31.726Z,12.30
2023-05-06T23:22:27.831Z,9.80
2023-05-06T23:24:56.338Z,10.10
2023-05-06T23:27:24.631Z,11.40
2023-05-06T23:32:20.897Z,10.80
2023-05-06T23:37:17.225Z,9.30
2023-05-06T23:39:46.909Z,11.90
2023-05-06T23:42:15.312Z,11.40
2023-05-06T23:47:11.048Z,8.80
2023-05-06T23:49:39.227Z,9.50
2023-05-06T23:52:07.622Z,8.80
2023-05-06T23:54:35.931Z,9.70
2023-05-06T23:57:04.494Z,8.70
2023-05-06T23:59:33.078Z,9.70
